sensor_id;sensor_type;location;lat;lon;timestamp;P1;durP1;ratioP1;P2;durP2;ratioP2
55220;SDS011;41089;51.448;6.604;2022-12-18T00:02:26;21.60;;;11.52;;
55220;SDS011;41089;51.448;6.604;2022-12-18T00:08:27;20.45;;;11.85;;
55220;SDS011;41089;51.448;6.604;2022-12-18T00:14:28;18.83;;;11.05;;
55220;SDS011;41089;51.448;6.604;2022-12-18T00:20:28;23.27;;;12.60;;
55220;SDS011;41089;51.448;6.604;2022-12-18T00:26:30;18.50;;;11.32;;
55220;SDS011;41089;51.448;6.604;2022-12-18T00:32:32;18.63;;;11.20;;
55220;SDS011;41089;51.448;6.604;2022-12-18T00:38:33;18.80;;;11.63;;
55220;SDS011;41089;51.448;6.604;2022-12-18T00:44:35;17.27;;;10.05;;
55220;SDS011;41089;51.448;6.604;2022-12-18T00:50:35;16.05;;;9.10;;
55220;SDS011;41089;51.448;6.604;2022-12-18T00:56:36;16.30;;;8.73;;
55220;SDS011;41089;51.448;6.604;2022-12-18T01:02:38;14.63;;;9.13;;
55220;SDS011;41089;51.448;6.604;2022-12-18T01:08:38;16.42;;;8.38;;
55220;SDS011;41089;51.448;6.604;2022-12-18T01:14:39;14.77;;;8.55;;
55220;SDS011;41089;51.448;6.604;2022-12-18T01:20:39;15.88;;;8.70;;
55220;SDS011;41089;51.448;6.604;2022-12-18T01:26:40;14.32;;;8.30;;
55220;SDS011;41089;51.448;6.604;2022-12-18T01:32:40;13.75;;;8.35;;
55220;SDS011;41089;51.448;6.604;2022-12-18T01:38:41;14.43;;;8.67;;
55220;SDS011;41089;51.448;6.604;2022-12-18T01:51:07;13.57;;;8.20;;
55220;SDS011;41089;51.448;6.604;2022-12-18T01:57:09;15.25;;;8.45;;
55220;SDS011;41089;51.448;6.604;2022-12-18T02:03:10;14.27;;;8.30;;
55220;SDS011;41089;51.448;6.604;2022-12-18T02:21:40;16.27;;;9.20;;
55220;SDS011;41089;51.448;6.604;2022-12-18T02:27:51;14.85;;;8.60;;
55220;SDS011;41089;51.448;6.604;2022-12-18T02:33:53;12.30;;;8.80;;
55220;SDS011;41089;51.448;6.604;2022-12-18T02:39:55;15.32;;;8.77;;
55220;SDS011;41089;51.448;6.604;2022-12-18T02:45:58;15.07;;;8.70;;
55220;SDS011;41089;51.448;6.604;2022-12-18T02:52:16;16.17;;;10.18;;
55220;SDS011;41089;51.448;6.604;2022-12-18T03:10:39;17.02;;;9.85;;
55220;SDS011;41089;51.448;6.604;2022-12-18T03:16:43;12.88;;;8.52;;
55220;SDS011;41089;51.448;6.604;2022-12-18T03:22:45;14.60;;;9.02;;
55220;SDS011;41089;51.448;6.604;2022-12-18T03:28:58;13.23;;;8.25;;
55220;SDS011;41089;51.448;6.604;2022-12-18T03:35:02;14.88;;;7.72;;
55220;SDS011;41089;51.448;6.604;2022-12-18T04:00:12;13.55;;;8.30;;
55220;SDS011;41089;51.448;6.604;2022-12-18T04:06:14;11.80;;;8.13;;
55220;SDS011;41089;51.448;6.604;2022-12-18T04:12:15;10.98;;;7.95;;
55220;SDS011;41089;51.448;6.604;2022-12-18T04:18:15;12.27;;;7.78;;
55220;SDS011;41089;51.448;6.604;2022-12-18T04:24:15;13.33;;;8.07;;
55220;SDS011;41089;51.448;6.604;2022-12-18T04:30:16;14.18;;;7.30;;
55220;SDS011;41089;51.448;6.604;2022-12-18T04:36:16;13.90;;;7.87;;
55220;SDS011;41089;51.448;6.604;2022-12-18T04:42:17;12.82;;;7.40;;
55220;SDS011;41089;51.448;6.604;2022-12-18T04:48:17;10.63;;;7.27;;
55220;SDS011;41089;51.448;6.604;2022-12-18T04:54:18;11.18;;;7.28;;
55220;SDS011;41089;51.448;6.604;2022-12-18T05:00:19;11.18;;;7.47;;
55220;SDS011;41089;51.448;6.604;2022-12-18T05:06:20;12.10;;;7.88;;
55220;SDS011;41089;51.448;6.604;2022-12-18T05:12:20;11.07;;;7.30;;
55220;SDS011;41089;51.448;6.604;2022-12-18T05:18:21;12.60;;;6.97;;
55220;SDS011;41089;51.448;6.604;2022-12-18T05:24:25;9.63;;;6.75;;
55220;SDS011;41089;51.448;6.604;2022-12-18T05:30:25;10.63;;;7.50;;
55220;SDS011;41089;51.448;6.604;2022-12-18T05:36:25;9.27;;;6.97;;
55220;SDS011;41089;51.448;6.604;2022-12-18T05:42:26;10.93;;;6.95;;
55220;SDS011;41089;51.448;6.604;2022-12-18T05:48:26;9.15;;;6.30;;
55220;SDS011;41089;51.448;6.604;2022-12-18T05:54:27;11.15;;;7.35;;
55220;SDS011;41089;51.448;6.604;2022-12-18T06:00:28;10.65;;;6.70;;
55220;SDS011;41089;51.448;6.604;2022-12-18T06:06:29;10.93;;;7.03;;
55220;SDS011;41089;51.448;6.604;2022-12-18T06:12:30;9.90;;;6.30;;
55220;SDS011;41089;51.448;6.604;2022-12-18T06:18:31;11.68;;;7.55;;
55220;SDS011;41089;51.448;6.604;2022-12-18T06:24:31;10.52;;;7.15;;
55220;SDS011;41089;51.448;6.604;2022-12-18T06:30:33;11.20;;;7.38;;
55220;SDS011;41089;51.448;6.604;2022-12-18T06:36:33;12.00;;;7.25;;
55220;SDS011;41089;51.448;6.604;2022-12-18T06:42:34;12.23;;;7.37;;
55220;SDS011;41089;51.448;6.604;2022-12-18T06:48:34;12.77;;;6.60;;
55220;SDS011;41089;51.448;6.604;2022-12-18T06:54:34;8.68;;;6.65;;
55220;SDS011;41089;51.448;6.604;2022-12-18T07:00:35;9.63;;;6.15;;
55220;SDS011;41089;51.448;6.604;2022-12-18T07:06:35;11.45;;;6.20;;
55220;SDS011;41089;51.448;6.604;2022-12-18T07:12:36;12.60;;;6.07;;
55220;SDS011;41089;51.448;6.604;2022-12-18T07:18:36;9.15;;;6.43;;
55220;SDS011;41089;51.448;6.604;2022-12-18T07:24:37;11.30;;;6.65;;
55220;SDS011;41089;51.448;6.604;2022-12-18T07:30:38;11.63;;;6.97;;
55220;SDS011;41089;51.448;6.604;2022-12-18T07:36:38;10.35;;;6.55;;
55220;SDS011;41089;51.448;6.604;2022-12-18T07:42:39;11.65;;;6.70;;
55220;SDS011;41089;51.448;6.604;2022-12-18T07:48:40;12.43;;;7.10;;
55220;SDS011;41089;51.448;6.604;2022-12-18T07:54:41;10.98;;;6.45;;
55220;SDS011;41089;51.448;6.604;2022-12-18T08:00:41;10.73;;;6.68;;
55220;SDS011;41089;51.448;6.604;2022-12-18T08:06:42;13.18;;;7.43;;
55220;SDS011;41089;51.448;6.604;2022-12-18T08:12:42;10.95;;;7.70;;
55220;SDS011;41089;51.448;6.604;2022-12-18T08:18:44;10.90;;;7.57;;
55220;SDS011;41089;51.448;6.604;2022-12-18T08:24:45;12.35;;;7.53;;
55220;SDS011;41089;51.448;6.604;2022-12-18T08:30:45;11.40;;;6.88;;
55220;SDS011;41089;51.448;6.604;2022-12-18T08:36:45;10.83;;;6.93;;
55220;SDS011;41089;51.448;6.604;2022-12-18T08:42:46;11.88;;;7.03;;
55220;SDS011;41089;51.448;6.604;2022-12-18T08:49:05;11.15;;;7.68;;
55220;SDS011;41089;51.448;6.604;2022-12-18T08:55:07;10.48;;;6.55;;
55220;SDS011;41089;51.448;6.604;2022-12-18T09:01:09;13.30;;;8.07;;
55220;SDS011;41089;51.448;6.604;2022-12-18T09:07:10;10.35;;;7.55;;
55220;SDS011;41089;51.448;6.604;2022-12-18T09:13:11;9.73;;;7.25;;
55220;SDS011;41089;51.448;6.604;2022-12-18T09:19:12;12.00;;;7.07;;
55220;SDS011;41089;51.448;6.604;2022-12-18T09:25:12;11.45;;;7.70;;
55220;SDS011;41089;51.448;6.604;2022-12-18T09:31:14;12.50;;;7.70;;
55220;SDS011;41089;51.448;6.604;2022-12-18T09:37:16;13.43;;;7.20;;
55220;SDS011;41089;51.448;6.604;2022-12-18T09:49:35;13.52;;;6.45;;
55220;SDS011;41089;51.448;6.604;2022-12-18T09:55:40;11.85;;;7.80;;
55220;SDS011;41089;51.448;6.604;2022-12-18T10:01:42;10.10;;;6.88;;
55220;SDS011;41089;51.448;6.604;2022-12-18T10:07:45;10.95;;;7.38;;
55220;SDS011;41089;51.448;6.604;2022-12-18T10:14:34;10.02;;;6.60;;
55220;SDS011;41089;51.448;6.604;2022-12-18T10:20:23;13.75;;;7.78;;
55220;SDS011;41089;51.448;6.604;2022-12-18T10:26:24;11.90;;;7.82;;
55220;SDS011;41089;51.448;6.604;2022-12-18T10:32:26;12.02;;;7.38;;
55220;SDS011;41089;51.448;6.604;2022-12-18T10:38:31;12.55;;;7.90;;
55220;SDS011;41089;51.448;6.604;2022-12-18T10:44:32;11.15;;;7.75;;
55220;SDS011;41089;51.448;6.604;2022-12-18T10:50:33;11.50;;;7.47;;
55220;SDS011;41089;51.448;6.604;2022-12-18T10:56:35;13.00;;;8.15;;
55220;SDS011;41089;51.448;6.604;2022-12-18T11:02:37;13.52;;;7.55;;
55220;SDS011;41089;51.448;6.604;2022-12-18T11:08:38;10.90;;;6.93;;
55220;SDS011;41089;51.448;6.604;2022-12-18T11:14:46;11.88;;;7.95;;
55220;SDS011;41089;51.448;6.604;2022-12-18T11:20:52;11.77;;;7.90;;
55220;SDS011;41089;51.448;6.604;2022-12-18T11:26:58;11.30;;;7.65;;
55220;SDS011;41089;51.448;6.604;2022-12-18T11:33:11;10.75;;;7.07;;
55220;SDS011;41089;51.448;6.604;2022-12-18T11:39:24;11.93;;;8.00;;
55220;SDS011;41089;51.448;6.604;2022-12-18T11:45:28;16.33;;;8.55;;
55220;SDS011;41089;51.448;6.604;2022-12-18T11:51:33;12.95;;;8.63;;
55220;SDS011;41089;51.448;6.604;2022-12-18T12:04:27;16.10;;;8.98;;
55220;SDS011;41089;51.448;6.604;2022-12-18T12:42:01;15.32;;;9.40;;
55220;SDS011;41089;51.448;6.604;2022-12-18T12:48:33;17.00;;;9.15;;
55220;SDS011;41089;51.448;6.604;2022-12-18T12:54:35;16.33;;;9.85;;
55220;SDS011;41089;51.448;6.604;2022-12-18T13:00:39;16.38;;;9.85;;
55220;SDS011;41089;51.448;6.604;2022-12-18T13:06:47;16.97;;;11.10;;
55220;SDS011;41089;51.448;6.604;2022-12-18T13:13:07;16.55;;;10.90;;
55220;SDS011;41089;51.448;6.604;2022-12-18T13:19:18;21.05;;;11.77;;
55220;SDS011;41089;51.448;6.604;2022-12-18T13:25:29;19.65;;;11.63;;
55220;SDS011;41089;51.448;6.604;2022-12-18T13:37:43;19.67;;;12.43;;
55220;SDS011;41089;51.448;6.604;2022-12-18T13:49:54;19.45;;;12.52;;
55220;SDS011;41089;51.448;6.604;2022-12-18T13:55:55;19.55;;;11.85;;
55220;SDS011;41089;51.448;6.604;2022-12-18T14:01:56;19.87;;;12.37;;
55220;SDS011;41089;51.448;6.604;2022-12-18T14:08:00;19.45;;;12.32;;
55220;SDS011;41089;51.448;6.604;2022-12-18T14:14:07;19.95;;;13.05;;
55220;SDS011;41089;51.448;6.604;2022-12-18T14:20:12;18.70;;;12.68;;
55220;SDS011;41089;51.448;6.604;2022-12-18T14:26:19;22.58;;;15.30;;
55220;SDS011;41089;51.448;6.604;2022-12-18T14:32:21;22.10;;;12.88;;
55220;SDS011;41089;51.448;6.604;2022-12-18T14:38:27;26.33;;;17.58;;
55220;SDS011;41089;51.448;6.604;2022-12-18T14:44:28;23.20;;;15.43;;
55220;SDS011;41089;51.448;6.604;2022-12-18T14:50:29;22.02;;;13.48;;
55220;SDS011;41089;51.448;6.604;2022-12-18T14:56:31;23.83;;;14.77;;
55220;SDS011;41089;51.448;6.604;2022-12-18T15:02:34;24.77;;;14.88;;
55220;SDS011;41089;51.448;6.604;2022-12-18T15:08:36;23.63;;;14.75;;
55220;SDS011;41089;51.448;6.604;2022-12-18T15:26:49;21.02;;;14.05;;
55220;SDS011;41089;51.448;6.604;2022-12-18T15:32:50;19.93;;;14.37;;
55220;SDS011;41089;51.448;6.604;2022-12-18T15:38:52;27.38;;;15.63;;
55220;SDS011;41089;51.448;6.604;2022-12-18T15:44:53;25.08;;;15.82;;
55220;SDS011;41089;51.448;6.604;2022-12-18T15:50:54;30.13;;;16.38;;
55220;SDS011;41089;51.448;6.604;2022-12-18T15:56:57;29.27;;;18.50;;
55220;SDS011;41089;51.448;6.604;2022-12-18T16:03:16;22.92;;;15.35;;
55220;SDS011;41089;51.448;6.604;2022-12-18T16:09:16;23.23;;;16.20;;
55220;SDS011;41089;51.448;6.604;2022-12-18T16:15:16;24.90;;;15.07;;
55220;SDS011;41089;51.448;6.604;2022-12-18T16:21:18;25.60;;;15.80;;
55220;SDS011;41089;51.448;6.604;2022-12-18T16:27:20;24.17;;;15.65;;
55220;SDS011;41089;51.448;6.604;2022-12-18T16:33:21;29.13;;;17.05;;
55220;SDS011;41089;51.448;6.604;2022-12-18T16:39:21;27.53;;;18.67;;
55220;SDS011;41089;51.448;6.604;2022-12-18T16:45:22;33.53;;;19.67;;
55220;SDS011;41089;51.448;6.604;2022-12-18T16:51:22;28.23;;;17.03;;
55220;SDS011;41089;51.448;6.604;2022-12-18T16:57:22;30.90;;;20.67;;
55220;SDS011;41089;51.448;6.604;2022-12-18T17:03:23;30.38;;;18.10;;
55220;SDS011;41089;51.448;6.604;2022-12-18T17:09:23;27.17;;;17.90;;
55220;SDS011;41089;51.448;6.604;2022-12-18T17:15:24;28.48;;;18.50;;
55220;SDS011;41089;51.448;6.604;2022-12-18T17:21:24;26.48;;;18.15;;
55220;SDS011;41089;51.448;6.604;2022-12-18T17:27:25;29.67;;;17.80;;
55220;SDS011;41089;51.448;6.604;2022-12-18T17:33:25;27.88;;;17.77;;
55220;SDS011;41089;51.448;6.604;2022-12-18T17:39:26;27.92;;;18.92;;
55220;SDS011;41089;51.448;6.604;2022-12-18T17:45:28;29.50;;;18.50;;
55220;SDS011;41089;51.448;6.604;2022-12-18T17:51:29;28.17;;;19.40;;
55220;SDS011;41089;51.448;6.604;2022-12-18T17:57:29;37.40;;;20.33;;
55220;SDS011;41089;51.448;6.604;2022-12-18T18:03:30;31.90;;;19.97;;
55220;SDS011;41089;51.448;6.604;2022-12-18T18:09:31;32.75;;;18.95;;
55220;SDS011;41089;51.448;6.604;2022-12-18T18:15:32;32.40;;;20.93;;
55220;SDS011;41089;51.448;6.604;2022-12-18T18:21:33;35.10;;;22.27;;
55220;SDS011;41089;51.448;6.604;2022-12-18T18:27:33;37.45;;;22.85;;
55220;SDS011;41089;51.448;6.604;2022-12-18T18:33:34;33.40;;;21.47;;
55220;SDS011;41089;51.448;6.604;2022-12-18T18:39:34;34.72;;;20.67;;
55220;SDS011;41089;51.448;6.604;2022-12-18T18:45:35;35.92;;;22.48;;
55220;SDS011;41089;51.448;6.604;2022-12-18T18:51:35;36.27;;;22.13;;
55220;SDS011;41089;51.448;6.604;2022-12-18T18:57:35;35.37;;;22.90;;
55220;SDS011;41089;51.448;6.604;2022-12-18T19:03:37;36.63;;;20.73;;
55220;SDS011;41089;51.448;6.604;2022-12-18T19:09:37;34.90;;;22.20;;
55220;SDS011;41089;51.448;6.604;2022-12-18T19:15:38;39.20;;;22.40;;
55220;SDS011;41089;51.448;6.604;2022-12-18T19:21:38;37.70;;;22.38;;
55220;SDS011;41089;51.448;6.604;2022-12-18T19:27:38;38.30;;;22.30;;
55220;SDS011;41089;51.448;6.604;2022-12-18T19:33:41;35.15;;;21.70;;
55220;SDS011;41089;51.448;6.604;2022-12-18T19:39:43;35.97;;;22.02;;
55220;SDS011;41089;51.448;6.604;2022-12-18T19:45:44;34.17;;;22.17;;
55220;SDS011;41089;51.448;6.604;2022-12-18T19:51:45;34.72;;;20.60;;
55220;SDS011;41089;51.448;6.604;2022-12-18T19:57:45;39.90;;;22.63;;
55220;SDS011;41089;51.448;6.604;2022-12-18T20:03:45;36.67;;;23.57;;
55220;SDS011;41089;51.448;6.604;2022-12-18T20:09:46;36.70;;;22.10;;
55220;SDS011;41089;51.448;6.604;2022-12-18T20:15:46;39.13;;;24.00;;
55220;SDS011;41089;51.448;6.604;2022-12-18T20:21:47;37.17;;;22.27;;
55220;SDS011;41089;51.448;6.604;2022-12-18T20:27:47;37.70;;;23.45;;
55220;SDS011;41089;51.448;6.604;2022-12-18T20:33:48;37.58;;;23.45;;
55220;SDS011;41089;51.448;6.604;2022-12-18T20:39:49;37.85;;;23.58;;
55220;SDS011;41089;51.448;6.604;2022-12-18T20:45:50;38.17;;;21.88;;
55220;SDS011;41089;51.448;6.604;2022-12-18T20:51:59;36.05;;;22.17;;
55220;SDS011;41089;51.448;6.604;2022-12-18T20:58:02;39.47;;;22.52;;
55220;SDS011;41089;51.448;6.604;2022-12-18T21:04:02;38.57;;;21.93;;
55220;SDS011;41089;51.448;6.604;2022-12-18T21:10:03;36.75;;;21.42;;
55220;SDS011;41089;51.448;6.604;2022-12-18T21:16:04;36.95;;;22.58;;
55220;SDS011;41089;51.448;6.604;2022-12-18T21:22:05;39.38;;;21.85;;
55220;SDS011;41089;51.448;6.604;2022-12-18T21:28:05;41.93;;;22.63;;
55220;SDS011;41089;51.448;6.604;2022-12-18T21:34:06;40.45;;;24.23;;
55220;SDS011;41089;51.448;6.604;2022-12-18T21:40:07;36.17;;;22.30;;
55220;SDS011;41089;51.448;6.604;2022-12-18T21:46:08;40.22;;;23.73;;
55220;SDS011;41089;51.448;6.604;2022-12-18T21:52:08;40.10;;;22.70;;
55220;SDS011;41089;51.448;6.604;2022-12-18T21:58:09;43.47;;;23.97;;
55220;SDS011;41089;51.448;6.604;2022-12-18T22:04:09;41.13;;;22.87;;
55220;SDS011;41089;51.448;6.604;2022-12-18T22:10:10;38.72;;;22.48;;
55220;SDS011;41089;51.448;6.604;2022-12-18T22:16:11;39.97;;;24.15;;
55220;SDS011;41089;51.448;6.604;2022-12-18T22:22:11;40.58;;;23.73;;
55220;SDS011;41089;51.448;6.604;2022-12-18T22:28:12;43.90;;;23.15;;
55220;SDS011;41089;51.448;6.604;2022-12-18T22:34:31;45.58;;;24.48;;
55220;SDS011;41089;51.448;6.604;2022-12-18T22:40:32;39.43;;;23.50;;
55220;SDS011;41089;51.448;6.604;2022-12-18T22:46:34;37.63;;;23.83;;
55220;SDS011;41089;51.448;6.604;2022-12-18T22:52:38;44.33;;;23.33;;
55220;SDS011;41089;51.448;6.604;2022-12-18T22:58:48;42.25;;;24.52;;
55220;SDS011;41089;51.448;6.604;2022-12-18T23:04:50;37.38;;;21.70;;
55220;SDS011;41089;51.448;6.604;2022-12-18T23:10:51;48.38;;;23.67;;
55220;SDS011;41089;51.448;6.604;2022-12-18T23:16:52;45.15;;;25.38;;
55220;SDS011;41089;51.448;6.604;2022-12-18T23:22:52;41.00;;;23.60;;
55220;SDS011;41089;51.448;6.604;2022-12-18T23:28:53;43.50;;;24.00;;
55220;SDS011;41089;51.448;6.604;2022-12-18T23:34:56;42.53;;;25.10;;
55220;SDS011;41089;51.448;6.604;2022-12-18T23:40:57;46.30;;;25.55;;
55220;SDS011;41089;51.448;6.604;2022-12-18T23:46:58;45.65;;;25.17;;
55220;SDS011;41089;51.448;6.604;2022-12-18T23:52:58;42.78;;;24.65;;
55220;SDS011;41089;51.448;6.604;2022-12-18T23:58:58;43.85;;;26.40;;
